Time;durP1;ratioP1;P1;durP2;ratioP2;P2;SDS_P1;SDS_P2;PMS_P1;PMS_P2;Temp;Humidity;BMP_temperature;BMP_pressure;BME280_temperature;BME280_humidity;BME280_pressure;Samples;Min_cycle;Max_cycle;Signal;HPM_P1;HPM_P2
2023/08/28 00:02:25;;;;;;;4.50;1.75;;;;;;;;;;5085118;28;20040;-59
2023/08/28 00:04:52;;;;;;;3.25;1.35;;;;;;;;;;5084619;28;20108;-59
2023/08/28 00:07:18;;;;;;;3.03;1.45;;;;;;;;;;5083006;28;20415;-59
2023/08/28 00:09:44;;;;;;;5.55;1.75;;;;;;;;;;5087693;28;20434;-59
2023/08/28 00:12:10;;;;;;;4.03;1.75;;;;;;;;;;5080373;28;20112;-59
2023/08/28 00:14:36;;;;;;;3.05;1.70;;;;;;;;;;5089804;28;20083;-59
2023/08/28 00:17:04;;;;;;;4.78;1.67;;;;;;;;;;5083693;28;20098;-59
2023/08/28 00:19:31;;;;;;;5.00;1.90;;;;;;;;;;5088209;28;20055;-59
2023/08/28 00:21:57;;;;;;;5.60;1.70;;;;;;;;;;5086604;28;20115;-59
2023/08/28 00:24:23;;;;;;;4.10;1.88;;;;;;;;;;5082697;28;20048;-59
2023/08/28 00:26:50;;;;;;;4.43;1.90;;;;;;;;;;5083840;28;20395;-59
2023/08/28 00:29:16;;;;;;;4.57;1.90;;;;;;;;;;5080913;28;20051;-59
2023/08/28 00:31:42;;;;;;;5.05;1.92;;;;;;;;;;5095445;28;20044;-59
2023/08/28 00:34:08;;;;;;;6.32;2.30;;;;;;;;;;5096130;28;20427;-59
2023/08/28 00:36:35;;;;;;;3.92;2.05;;;;;;;;;;5087046;28;20040;-59
2023/08/28 00:39:01;;;;;;;4.80;2.05;;;;;;;;;;5095152;28;20043;-59
2023/08/28 00:41:27;;;;;;;6.63;2.10;;;;;;;;;;5087559;28;20488;-59
2023/08/28 00:43:53;;;;;;;3.72;2.08;;;;;;;;;;5085622;28;20039;-59
2023/08/28 00:46:19;;;;;;;3.80;1.95;;;;;;;;;;5091414;28;20162;-59
2023/08/28 00:48:45;;;;;;;6.25;2.75;;;;;;;;;;5101867;28;20044;-59
2023/08/28 00:51:12;;;;;;;7.68;3.05;;;;;;;;;;5086877;28;20121;-60
2023/08/28 00:53:38;;;;;;;13.65;2.80;;;;;;;;;;5095131;28;20389;-59
2023/08/28 00:56:04;;;;;;;7.47;2.75;;;;;;;;;;5094908;28;20478;-59
2023/08/28 00:58:30;;;;;;;5.15;3.05;;;;;;;;;;5088139;28;20520;-59
2023/08/28 01:00:57;;;;;;;4.13;2.80;;;;;;;;;;5090412;28;20051;-59
2023/08/28 01:03:23;;;;;;;10.75;2.70;;;;;;;;;;5092323;28;20044;-59
2023/08/28 01:06:09;;;;;;;4.25;2.30;;;;;;;;;;5090122;28;20097;-59
2023/08/28 01:08:36;;;;;;;5.57;2.40;;;;;;;;;;5086660;28;20073;-59
2023/08/28 01:11:09;;;;;;;3.83;2.53;;;;;;;;;;5091804;28;20040;-59
2023/08/28 01:13:39;;;;;;;6.63;2.40;;;;;;;;;;5079968;28;20047;-59
2023/08/28 01:16:05;;;;;;;5.32;2.75;;;;;;;;;;5091929;28;20044;-59
2023/08/28 01:18:31;;;;;;;6.53;2.35;;;;;;;;;;5093118;28;20044;-59
2023/08/28 01:20:58;;;;;;;4.65;2.33;;;;;;;;;;5105057;28;20069;-59
2023/08/28 01:23:31;;;;;;;4.32;1.83;;;;;;;;;;5093682;28;20400;-59
2023/08/28 01:25:58;;;;;;;7.05;1.80;;;;;;;;;;5090920;28;20046;-59
2023/08/28 01:28:25;;;;;;;6.22;2.00;;;;;;;;;;5091599;28;20051;-59
2023/08/28 01:30:53;;;;;;;3.53;1.80;;;;;;;;;;5091828;28;20483;-59
2023/08/28 01:33:19;;;;;;;4.93;1.95;;;;;;;;;;5091280;28;20411;-59
2023/08/28 01:35:50;;;;;;;6.70;1.95;;;;;;;;;;5089828;28;20040;-59
2023/08/28 01:38:16;;;;;;;3.80;1.90;;;;;;;;;;5086435;28;20161;-59
2023/08/28 01:40:54;;;;;;;4.43;1.70;;;;;;;;;;5094375;28;20491;-59
2023/08/28 01:43:22;;;;;;;5.00;1.83;;;;;;;;;;5092012;28;20093;-59
2023/08/28 01:45:50;;;;;;;5.07;2.30;;;;;;;;;;5084014;28;20043;-59
2023/08/28 01:48:16;;;;;;;6.10;2.03;;;;;;;;;;5084460;28;20442;-59
2023/08/28 01:50:43;;;;;;;4.07;2.00;;;;;;;;;;5090593;28;20032;-59
2023/08/28 01:53:09;;;;;;;4.78;2.40;;;;;;;;;;5090786;28;20095;-59
2023/08/28 01:55:55;;;;;;;4.43;1.90;;;;;;;;;;5087004;28;20048;-59
2023/08/28 01:58:21;;;;;;;4.00;2.35;;;;;;;;;;5089439;28;20439;-59
2023/08/28 02:00:47;;;;;;;6.03;2.25;;;;;;;;;;5087564;28;20036;-59
2023/08/28 02:03:13;;;;;;;4.00;2.22;;;;;;;;;;5088028;28;20506;-60
2023/08/28 02:05:40;;;;;;;5.28;2.10;;;;;;;;;;5083898;28;20071;-59
2023/08/28 02:08:06;;;;;;;6.43;2.35;;;;;;;;;;5087691;28;20097;-59
2023/08/28 02:10:32;;;;;;;4.38;2.28;;;;;;;;;;5082117;28;21867;-59
2023/08/28 02:12:58;;;;;;;5.35;1.90;;;;;;;;;;5090104;28;20036;-59
2023/08/28 02:15:24;;;;;;;3.13;1.98;;;;;;;;;;5090554;28;20048;-59
2023/08/28 02:17:50;;;;;;;6.40;2.47;;;;;;;;;;5088627;28;20040;-59
2023/08/28 02:20:16;;;;;;;3.58;1.90;;;;;;;;;;5086315;28;20499;-59
2023/08/28 02:22:43;;;;;;;3.08;1.60;;;;;;;;;;5085651;28;20040;-59
2023/08/28 02:25:09;;;;;;;3.75;1.55;;;;;;;;;;5081405;28;20048;-59
2023/08/28 02:27:35;;;;;;;2.78;1.73;;;;;;;;;;5082864;28;20367;-59
2023/08/28 02:30:01;;;;;;;3.17;1.80;;;;;;;;;;5088182;28;20113;-59
2023/08/28 02:32:28;;;;;;;2.55;1.40;;;;;;;;;;5082448;28;20048;-59
2023/08/28 02:34:54;;;;;;;2.72;1.50;;;;;;;;;;5079103;28;20040;-59
2023/08/28 02:37:20;;;;;;;3.92;1.73;;;;;;;;;;5085808;28;20130;-59
2023/08/28 02:39:46;;;;;;;4.03;1.60;;;;;;;;;;5087656;28;20040;-59
2023/08/28 02:42:12;;;;;;;4.20;1.60;;;;;;;;;;5085402;28;20050;-59
2023/08/28 02:44:39;;;;;;;4.60;2.00;;;;;;;;;;5086646;28;20048;-59
2023/08/28 02:47:05;;;;;;;4.03;1.75;;;;;;;;;;5100290;28;20414;-59
2023/08/28 02:49:31;;;;;;;3.47;2.00;;;;;;;;;;5084787;28;20123;-59
2023/08/28 02:51:58;;;;;;;4.53;2.13;;;;;;;;;;5089433;28;20369;-59
2023/08/28 02:54:24;;;;;;;4.75;2.28;;;;;;;;;;5089754;28;20059;-59
2023/08/28 02:56:50;;;;;;;9.07;2.33;;;;;;;;;;5089743;28;20089;-58
2023/08/28 02:59:16;;;;;;;3.25;2.05;;;;;;;;;;5087932;28;20035;-59
2023/08/28 03:01:42;;;;;;;5.38;2.38;;;;;;;;;;5097510;28;20089;-59
2023/08/28 03:04:09;;;;;;;7.20;2.78;;;;;;;;;;5101788;28;20108;-59
2023/08/28 03:06:38;;;;;;;3.80;2.40;;;;;;;;;;5091344;28;20344;-59
2023/08/28 03:09:06;;;;;;;4.10;2.17;;;;;;;;;;5091230;28;20050;-59
2023/08/28 03:11:32;;;;;;;5.80;2.45;;;;;;;;;;5097092;28;20048;-59
2023/08/28 03:13:58;;;;;;;7.80;2.97;;;;;;;;;;5090985;28;20036;-59
2023/08/28 03:16:24;;;;;;;7.22;3.00;;;;;;;;;;5089665;28;20044;-59
2023/08/28 03:18:51;;;;;;;4.25;2.88;;;;;;;;;;5089449;28;20451;-59
2023/08/28 03:21:17;;;;;;;8.13;2.88;;;;;;;;;;5090836;28;20062;-59
2023/08/28 03:23:43;;;;;;;4.75;2.70;;;;;;;;;;5089770;28;20043;-59
2023/08/28 03:26:09;;;;;;;4.72;2.33;;;;;;;;;;5100809;28;20100;-59
2023/08/28 03:28:36;;;;;;;4.78;2.55;;;;;;;;;;5089373;28;20048;-59
2023/08/28 03:31:03;;;;;;;4.18;2.70;;;;;;;;;;5092032;28;20040;-59
2023/08/28 03:33:29;;;;;;;6.40;3.10;;;;;;;;;;5094526;28;20449;-59
2023/08/28 03:35:55;;;;;;;7.00;3.15;;;;;;;;;;5076948;28;20028;-59
2023/08/28 03:38:21;;;;;;;7.70;3.33;;;;;;;;;;5089750;28;20157;-59
2023/08/28 03:40:48;;;;;;;7.53;3.42;;;;;;;;;;5090055;28;20434;-59
2023/08/28 03:43:14;;;;;;;7.40;3.58;;;;;;;;;;5090960;28;20149;-59
2023/08/28 03:45:40;;;;;;;7.45;3.47;;;;;;;;;;5089891;28;20469;-59
2023/08/28 03:48:07;;;;;;;10.90;3.58;;;;;;;;;;5089837;28;20154;-59
2023/08/28 03:50:33;;;;;;;7.57;3.92;;;;;;;;;;5090758;28;20497;-59
2023/08/28 03:53:00;;;;;;;6.97;4.30;;;;;;;;;;5089275;28;20052;-59
2023/08/28 03:55:27;;;;;;;5.53;4.07;;;;;;;;;;5094965;28;20050;-59
2023/08/28 03:57:54;;;;;;;7.72;4.30;;;;;;;;;;5090080;28;20044;-59
2023/08/28 04:00:21;;;;;;;5.72;3.95;;;;;;;;;;5097448;28;20063;-59
2023/08/28 04:02:48;;;;;;;6.50;4.00;;;;;;;;;;5091324;28;20137;-59
2023/08/28 04:05:16;;;;;;;8.02;3.85;;;;;;;;;;5090152;28;20119;-59
2023/08/28 04:07:43;;;;;;;10.02;3.90;;;;;;;;;;5087923;28;20040;-59
2023/08/28 04:10:10;;;;;;;5.03;3.72;;;;;;;;;;5091556;28;20052;-59
2023/08/28 04:12:36;;;;;;;5.95;4.28;;;;;;;;;;5092359;28;20044;-59
2023/08/28 04:15:03;;;;;;;7.10;4.43;;;;;;;;;;5093367;28;20478;-59
2023/08/28 04:17:30;;;;;;;6.43;4.20;;;;;;;;;;5079044;28;20131;-59
2023/08/28 04:19:56;;;;;;;10.57;3.47;;;;;;;;;;5085017;28;20038;-59
2023/08/28 04:22:23;;;;;;;4.45;3.38;;;;;;;;;;5089566;28;20075;-59
2023/08/28 04:24:52;;;;;;;5.22;3.92;;;;;;;;;;5089589;28;20103;-59
2023/08/28 04:27:19;;;;;;;6.72;3.50;;;;;;;;;;5088426;28;20142;-59
2023/08/28 04:29:45;;;;;;;7.78;4.35;;;;;;;;;;5094450;28;20554;-59
2023/08/28 04:32:11;;;;;;;5.93;3.90;;;;;;;;;;5088176;28;20136;-59
2023/08/28 04:34:47;;;;;;;7.47;3.85;;;;;;;;;;5085126;28;20401;-59
2023/08/28 04:37:17;;;;;;;5.82;4.22;;;;;;;;;;5092540;28;20075;-59
2023/08/28 04:39:43;;;;;;;6.55;4.30;;;;;;;;;;5098076;28;20119;-59
2023/08/28 04:42:15;;;;;;;9.40;4.25;;;;;;;;;;5092550;28;20501;-59
2023/08/28 04:44:41;;;;;;;6.03;4.40;;;;;;;;;;5093696;28;20546;-59
2023/08/28 04:47:08;;;;;;;6.75;4.07;;;;;;;;;;5093393;28;20503;-59
2023/08/28 04:49:34;;;;;;;6.28;4.30;;;;;;;;;;5096070;28;20118;-59
2023/08/28 04:52:00;;;;;;;8.25;4.53;;;;;;;;;;5095046;28;20123;-59
2023/08/28 04:54:26;;;;;;;5.72;3.85;;;;;;;;;;5096255;28;20147;-59
2023/08/28 04:56:52;;;;;;;5.70;4.05;;;;;;;;;;5092641;28;20044;-59
2023/08/28 04:59:19;;;;;;;8.27;3.88;;;;;;;;;;5093549;28;20055;-59
2023/08/28 05:01:45;;;;;;;8.85;4.72;;;;;;;;;;5091578;28;20071;-59
2023/08/28 05:04:11;;;;;;;7.80;4.35;;;;;;;;;;5092847;28;20442;-59
2023/08/28 05:06:37;;;;;;;5.72;4.20;;;;;;;;;;5107606;28;20135;-68
2023/08/28 05:09:03;;;;;;;6.55;4.10;;;;;;;;;;5109392;28;20150;-59
2023/08/28 05:11:29;;;;;;;6.00;3.88;;;;;;;;;;5104909;28;20394;-59
2023/08/28 05:13:57;;;;;;;5.57;3.85;;;;;;;;;;5099400;28;20044;-60
2023/08/28 05:16:23;;;;;;;8.07;3.63;;;;;;;;;;5092442;28;20051;-59
2023/08/28 05:18:50;;;;;;;6.85;3.60;;;;;;;;;;5109278;28;20051;-59
2023/08/28 05:21:16;;;;;;;7.55;4.00;;;;;;;;;;5112215;28;20035;-59
2023/08/28 05:23:42;;;;;;;7.03;4.68;;;;;;;;;;5108023;28;20376;-59
2023/08/28 05:26:08;;;;;;;5.15;4.10;;;;;;;;;;5110231;28;20044;-59
2023/08/28 05:28:38;;;;;;;7.93;4.10;;;;;;;;;;5102896;28;20470;-59
2023/08/28 05:31:05;;;;;;;5.63;4.55;;;;;;;;;;5087160;28;20397;-59
2023/08/28 05:33:32;;;;;;;9.40;4.30;;;;;;;;;;5094563;28;20051;-62
2023/08/28 05:35:58;;;;;;;6.10;4.38;;;;;;;;;;5111939;28;20044;-61
2023/08/28 05:38:24;;;;;;;7.28;5.00;;;;;;;;;;5112653;28;20043;-61
2023/08/28 05:40:51;;;;;;;7.90;4.10;;;;;;;;;;5109799;28;20164;-60
2023/08/28 05:43:17;;;;;;;8.07;4.63;;;;;;;;;;5098158;28;20043;-61
2023/08/28 05:45:43;;;;;;;7.35;5.00;;;;;;;;;;5099426;28;20377;-61
2023/08/28 05:48:09;;;;;;;7.15;5.30;;;;;;;;;;5102034;28;20035;-61
2023/08/28 05:50:36;;;;;;;6.90;5.28;;;;;;;;;;5113187;28;20432;-60
2023/08/28 05:53:03;;;;;;;9.30;5.20;;;;;;;;;;5103915;28;20106;-61
2023/08/28 05:55:29;;;;;;;7.95;5.55;;;;;;;;;;5093706;28;20089;-60
2023/08/28 05:57:56;;;;;;;9.50;5.55;;;;;;;;;;5101685;28;20048;-57
2023/08/28 06:00:23;;;;;;;6.82;5.63;;;;;;;;;;5103504;28;20048;-57
2023/08/28 06:02:49;;;;;;;7.18;5.78;;;;;;;;;;5092527;28;20040;-57
2023/08/28 06:05:16;;;;;;;9.20;5.45;;;;;;;;;;5099249;27;20028;-57
2023/08/28 06:07:43;;;;;;;8.88;5.60;;;;;;;;;;5094800;28;20066;-57
2023/08/28 06:10:12;;;;;;;10.35;6.32;;;;;;;;;;5102625;28;20062;-56
2023/08/28 06:12:38;;;;;;;8.18;6.03;;;;;;;;;;5104052;28;20588;-57
2023/08/28 06:15:05;;;;;;;9.55;6.50;;;;;;;;;;5096361;28;20052;-57
2023/08/28 06:17:31;;;;;;;11.98;6.28;;;;;;;;;;5108380;28;20085;-60
2023/08/28 06:19:57;;;;;;;11.38;6.57;;;;;;;;;;5111956;28;20442;-57
2023/08/28 06:22:23;;;;;;;11.73;5.93;;;;;;;;;;5101248;28;20039;-58
2023/08/28 06:24:52;;;;;;;9.63;6.22;;;;;;;;;;5091727;28;20499;-57
2023/08/28 06:27:18;;;;;;;10.80;6.50;;;;;;;;;;5099582;28;20088;-57
2023/08/28 06:29:44;;;;;;;11.80;6.43;;;;;;;;;;5101052;28;20048;-57
2023/08/28 06:32:11;;;;;;;8.30;5.55;;;;;;;;;;5091627;28;20036;-58
2023/08/28 06:34:37;;;;;;;9.65;5.82;;;;;;;;;;5087626;28;20048;-57
2023/08/28 06:37:04;;;;;;;9.15;6.45;;;;;;;;;;5089159;28;20391;-57
2023/08/28 06:39:30;;;;;;;7.22;5.45;;;;;;;;;;5090688;28;20108;-57
2023/08/28 06:41:56;;;;;;;10.77;5.30;;;;;;;;;;5102466;28;20120;-58
2023/08/28 06:44:22;;;;;;;8.07;5.90;;;;;;;;;;5091194;28;20528;-57
2023/08/28 06:46:48;;;;;;;18.48;5.32;;;;;;;;;;5090760;28;20044;-64
2023/08/28 06:49:14;;;;;;;7.55;4.72;;;;;;;;;;5083929;28;20492;-57
2023/08/28 06:51:41;;;;;;;7.50;3.13;;;;;;;;;;5089735;28;20203;-57
2023/08/28 06:54:07;;;;;;;5.85;3.00;;;;;;;;;;5089376;28;20048;-57
2023/08/28 06:56:33;;;;;;;6.10;2.92;;;;;;;;;;5088933;28;20412;-58
2023/08/28 06:58:59;;;;;;;9.25;3.95;;;;;;;;;;5091771;28;20087;-58
2023/08/28 07:01:26;;;;;;;5.65;2.88;;;;;;;;;;5095020;28;20036;-58
2023/08/28 07:03:52;;;;;;;6.45;2.28;;;;;;;;;;5094493;28;20181;-57
2023/08/28 07:06:18;;;;;;;8.05;2.90;;;;;;;;;;5094741;28;20047;-58
2023/08/28 07:08:44;;;;;;;6.43;2.50;;;;;;;;;;5092924;28;20052;-58
2023/08/28 07:11:11;;;;;;;5.85;2.22;;;;;;;;;;5090568;28;20032;-58
2023/08/28 07:13:37;;;;;;;6.93;1.90;;;;;;;;;;5089959;28;20040;-58
2023/08/28 07:16:03;;;;;;;6.85;1.40;;;;;;;;;;5090258;28;20175;-59
2023/08/28 07:18:29;;;;;;;3.90;1.70;;;;;;;;;;5097645;28;20054;-58
2023/08/28 07:20:56;;;;;;;4.80;1.65;;;;;;;;;;5111485;28;20375;-57
2023/08/28 07:23:24;;;;;;;4.95;1.50;;;;;;;;;;5096701;28;20436;-57
2023/08/28 07:25:51;;;;;;;3.08;1.45;;;;;;;;;;5087525;28;20101;-58
2023/08/28 07:28:19;;;;;;;4.18;1.50;;;;;;;;;;5092137;28;20043;-57
2023/08/28 07:30:45;;;;;;;4.25;1.33;;;;;;;;;;5087389;28;20530;-57
2023/08/28 07:33:12;;;;;;;4.53;1.20;;;;;;;;;;5089677;28;20082;-58
2023/08/28 07:35:38;;;;;;;4.88;1.30;;;;;;;;;;5089579;28;20139;-57
2023/08/28 07:38:05;;;;;;;8.80;1.27;;;;;;;;;;5089557;28;20479;-57
2023/08/28 07:40:32;;;;;;;5.18;1.20;;;;;;;;;;5087114;28;20105;-57
2023/08/28 07:42:59;;;;;;;4.88;1.10;;;;;;;;;;5086913;28;20059;-57
2023/08/28 07:45:25;;;;;;;3.80;1.20;;;;;;;;;;5088937;28;20167;-58
2023/08/28 07:47:52;;;;;;;7.68;1.50;;;;;;;;;;5091383;28;20134;-57
2023/08/28 07:50:18;;;;;;;3.35;1.13;;;;;;;;;;5088477;28;20493;-57
2023/08/28 07:52:44;;;;;;;7.38;1.35;;;;;;;;;;5086962;28;20063;-57
2023/08/28 07:55:11;;;;;;;3.78;1.00;;;;;;;;;;5086571;28;20058;-58
2023/08/28 07:57:37;;;;;;;2.67;1.00;;;;;;;;;;5089032;28;20118;-57
2023/08/28 08:00:09;;;;;;;3.47;0.82;;;;;;;;;;5091776;28;20147;-58
2023/08/28 08:02:37;;;;;;;4.38;1.02;;;;;;;;;;5090331;28;20394;-57
2023/08/28 08:05:04;;;;;;;4.32;0.85;;;;;;;;;;5089844;28;20051;-58
2023/08/28 08:07:32;;;;;;;1.98;0.80;;;;;;;;;;5090159;28;20052;-57
2023/08/28 08:09:58;;;;;;;4.97;0.93;;;;;;;;;;5093744;28;20408;-58
2023/08/28 08:12:26;;;;;;;3.63;0.93;;;;;;;;;;5094065;28;20052;-58
2023/08/28 08:14:53;;;;;;;2.40;0.80;;;;;;;;;;5094781;28;20044;-57
2023/08/28 08:17:19;;;;;;;2.65;1.10;;;;;;;;;;5094707;28;20084;-57
2023/08/28 08:19:45;;;;;;;4.68;0.70;;;;;;;;;;5093044;28;20490;-57
2023/08/28 08:22:11;;;;;;;5.30;0.90;;;;;;;;;;5094006;28;20043;-57
2023/08/28 08:24:37;;;;;;;4.57;0.93;;;;;;;;;;5092176;28;20055;-57
2023/08/28 08:27:04;;;;;;;2.75;0.80;;;;;;;;;;5092027;28;20059;-57
2023/08/28 08:29:30;;;;;;;3.50;1.58;;;;;;;;;;5096089;28;20094;-57
2023/08/28 08:31:57;;;;;;;3.15;1.05;;;;;;;;;;5095420;28;20070;-58
2023/08/28 08:34:23;;;;;;;3.35;1.13;;;;;;;;;;5092021;28;20403;-57
2023/08/28 08:36:49;;;;;;;5.03;1.10;;;;;;;;;;5095342;28;20040;-57
2023/08/28 08:39:15;;;;;;;4.88;0.80;;;;;;;;;;5093780;28;20048;-57
2023/08/28 08:41:42;;;;;;;7.78;0.98;;;;;;;;;;5094277;28;20062;-58
2023/08/28 08:44:08;;;;;;;2.25;0.90;;;;;;;;;;5094474;28;20035;-58
2023/08/28 08:46:35;;;;;;;3.70;1.10;;;;;;;;;;5092810;28;20051;-57
2023/08/28 08:49:03;;;;;;;7.93;0.90;;;;;;;;;;5090610;28;20079;-57
2023/08/28 08:51:33;;;;;;;5.68;0.88;;;;;;;;;;5094293;28;20166;-57
2023/08/28 08:54:04;;;;;;;1.80;0.90;;;;;;;;;;5093159;28;20048;-57
2023/08/28 08:56:32;;;;;;;2.83;1.00;;;;;;;;;;5088208;28;20051;-58
2023/08/28 08:58:59;;;;;;;6.28;0.90;;;;;;;;;;5091047;28;20044;-58
2023/08/28 09:01:26;;;;;;;3.28;0.90;;;;;;;;;;5091863;28;20664;-58
2023/08/28 09:03:53;;;;;;;4.50;0.95;;;;;;;;;;5091945;28;20044;-58
2023/08/28 09:06:19;;;;;;;5.22;1.25;;;;;;;;;;5092332;28;20143;-58
2023/08/28 09:08:46;;;;;;;3.30;1.30;;;;;;;;;;5094256;28;20134;-57
2023/08/28 09:11:13;;;;;;;4.15;1.00;;;;;;;;;;5089613;28;20107;-57
2023/08/28 09:13:39;;;;;;;4.00;1.00;;;;;;;;;;5090829;28;20127;-58
2023/08/28 09:16:07;;;;;;;2.53;1.00;;;;;;;;;;5093473;28;20036;-58
2023/08/28 09:18:33;;;;;;;3.47;0.73;;;;;;;;;;5090792;28;20061;-58
2023/08/28 09:21:07;;;;;;;5.13;1.20;;;;;;;;;;5090030;28;20098;-58
2023/08/28 09:23:33;;;;;;;5.50;1.13;;;;;;;;;;5101283;27;20139;-58
2023/08/28 09:26:00;;;;;;;3.40;0.90;;;;;;;;;;5092234;28;20508;-57
2023/08/28 09:28:27;;;;;;;2.55;1.00;;;;;;;;;;5092248;28;20042;-58
2023/08/28 09:30:53;;;;;;;3.85;1.00;;;;;;;;;;5093055;28;20450;-57
2023/08/28 09:33:20;;;;;;;5.38;1.27;;;;;;;;;;5093035;28;20118;-57
2023/08/28 09:35:46;;;;;;;3.53;0.90;;;;;;;;;;5093541;28;20036;-58
2023/08/28 09:38:12;;;;;;;5.35;1.45;;;;;;;;;;5096816;28;20043;-58
2023/08/28 09:40:40;;;;;;;2.95;0.85;;;;;;;;;;5087556;28;20396;-58
2023/08/28 09:43:13;;;;;;;8.25;1.27;;;;;;;;;;5092775;28;20040;-65
2023/08/28 09:45:40;;;;;;;4.15;1.10;;;;;;;;;;5087663;28;20036;-66
2023/08/28 09:48:06;;;;;;;3.65;1.17;;;;;;;;;;5093309;28;20047;-68
2023/08/28 09:50:34;;;;;;;2.20;0.70;;;;;;;;;;5090959;28;20059;-58
2023/08/28 09:53:07;;;;;;;2.33;0.80;;;;;;;;;;5089249;28;20480;-65
2023/08/28 09:55:37;;;;;;;2.95;0.70;;;;;;;;;;5093478;28;20451;-58
2023/08/28 09:58:08;;;;;;;1.95;0.65;;;;;;;;;;5087567;28;20526;-58
2023/08/28 10:00:35;;;;;;;5.25;1.00;;;;;;;;;;5091157;28;20325;-63
2023/08/28 10:03:01;;;;;;;3.10;0.80;;;;;;;;;;5092620;28;20036;-63
2023/08/28 10:05:28;;;;;;;3.63;0.82;;;;;;;;;;5091669;28;20047;-58
2023/08/28 10:07:57;;;;;;;6.75;0.70;;;;;;;;;;5094118;28;20087;-58
2023/08/28 10:10:24;;;;;;;3.05;0.70;;;;;;;;;;5092226;28;20079;-58
2023/08/28 10:12:52;;;;;;;3.67;0.82;;;;;;;;;;5090596;28;20043;-58
2023/08/28 10:15:19;;;;;;;2.47;0.65;;;;;;;;;;5091766;28;20072;-58
2023/08/28 10:17:46;;;;;;;3.70;0.70;;;;;;;;;;5091531;28;20048;-58
2023/08/28 10:20:12;;;;;;;1.52;0.50;;;;;;;;;;5085644;28;20289;-58
2023/08/28 10:22:38;;;;;;;1.95;0.60;;;;;;;;;;5085796;28;20075;-58
2023/08/28 10:25:06;;;;;;;2.35;0.70;;;;;;;;;;5093174;28;20036;-58
2023/08/28 10:27:33;;;;;;;2.10;0.68;;;;;;;;;;5094086;28;20039;-58
2023/08/28 10:30:00;;;;;;;2.70;0.60;;;;;;;;;;5093296;28;20040;-58
2023/08/28 10:32:26;;;;;;;1.38;0.60;;;;;;;;;;5094149;28;20057;-67
2023/08/28 10:34:53;;;;;;;1.70;0.50;;;;;;;;;;5090651;28;20040;-58
2023/08/28 10:37:19;;;;;;;2.38;0.63;;;;;;;;;;5092832;28;20458;-58
2023/08/28 10:39:45;;;;;;;2.45;0.80;;;;;;;;;;5091573;28;20070;-58
2023/08/28 10:42:17;;;;;;;2.67;0.65;;;;;;;;;;5092510;28;20055;-59
2023/08/28 10:44:44;;;;;;;1.50;0.43;;;;;;;;;;5092169;28;20341;-58
2023/08/28 10:47:14;;;;;;;1.33;0.45;;;;;;;;;;5074736;28;20127;-58
2023/08/28 10:49:40;;;;;;;3.10;0.60;;;;;;;;;;5088592;28;20047;-58
2023/08/28 10:52:07;;;;;;;2.38;0.70;;;;;;;;;;5085821;28;20047;-58
2023/08/28 10:54:40;;;;;;;1.70;0.60;;;;;;;;;;5093767;28;20047;-58
2023/08/28 10:57:10;;;;;;;0.70;0.30;;;;;;;;;;5093521;28;20038;-58
2023/08/28 10:59:46;;;;;;;1.48;0.50;;;;;;;;;;5088342;28;20046;-58
2023/08/28 11:02:12;;;;;;;1.75;0.60;;;;;;;;;;5090233;28;20055;-58
2023/08/28 11:04:39;;;;;;;2.47;0.57;;;;;;;;;;5093633;28;20084;-58
2023/08/28 11:07:09;;;;;;;3.20;0.63;;;;;;;;;;5092085;28;20130;-58
2023/08/28 11:09:39;;;;;;;1.70;0.63;;;;;;;;;;5085759;28;20189;-58
2023/08/28 11:12:11;;;;;;;3.95;0.85;;;;;;;;;;5091289;28;20067;-58
2023/08/28 11:14:41;;;;;;;1.77;0.50;;;;;;;;;;5089741;28;20057;-58
2023/08/28 11:17:08;;;;;;;2.40;0.65;;;;;;;;;;5088488;28;20460;-58
2023/08/28 11:19:54;;;;;;;3.03;0.60;;;;;;;;;;5089728;28;20159;-58
2023/08/28 11:22:39;;;;;;;1.98;0.52;;;;;;;;;;5084791;28;20415;-58
2023/08/28 11:25:09;;;;;;;1.92;0.75;;;;;;;;;;5092034;28;20459;-58
2023/08/28 11:27:42;;;;;;;0.82;0.40;;;;;;;;;;5088770;28;20039;-58
2023/08/28 11:30:09;;;;;;;3.47;0.77;;;;;;;;;;5091031;28;20102;-58
2023/08/28 11:32:36;;;;;;;2.75;0.70;;;;;;;;;;5089873;28;20040;-57
2023/08/28 11:35:06;;;;;;;1.05;0.43;;;;;;;;;;5090014;28;20039;-58
2023/08/28 11:37:36;;;;;;;1.90;0.43;;;;;;;;;;5089087;28;20498;-58
2023/08/28 11:40:06;;;;;;;2.75;0.70;;;;;;;;;;5089743;28;20393;-58
2023/08/28 11:42:33;;;;;;;2.97;0.60;;;;;;;;;;5091116;28;20040;-58
2023/08/28 11:44:59;;;;;;;2.50;0.60;;;;;;;;;;5087092;28;20080;-57
2023/08/28 11:47:26;;;;;;;1.75;0.60;;;;;;;;;;5089640;28;20044;-58
2023/08/28 11:49:53;;;;;;;2.75;0.50;;;;;;;;;;5091343;28;20403;-57
2023/08/28 11:52:19;;;;;;;1.70;0.63;;;;;;;;;;5091406;28;20041;-58
2023/08/28 11:54:46;;;;;;;2.47;0.60;;;;;;;;;;5089406;28;20044;-57
2023/08/28 11:57:12;;;;;;;2.13;0.60;;;;;;;;;;5086122;28;20083;-58
2023/08/28 11:59:38;;;;;;;3.60;0.50;;;;;;;;;;5091864;28;20040;-57
2023/08/28 12:02:05;;;;;;;2.53;0.60;;;;;;;;;;5087870;28;20027;-58
2023/08/28 12:04:36;;;;;;;2.28;0.52;;;;;;;;;;5088312;28;20112;-57
2023/08/28 12:07:05;;;;;;;2.53;0.80;;;;;;;;;;5085455;28;20043;-58
2023/08/28 12:09:32;;;;;;;2.17;0.52;;;;;;;;;;5085994;28;20119;-57
2023/08/28 12:12:00;;;;;;;2.20;0.60;;;;;;;;;;5087286;28;20040;-57
2023/08/28 12:14:26;;;;;;;1.02;0.40;;;;;;;;;;5089001;28;20151;-57
2023/08/28 12:16:59;;;;;;;2.97;1.02;;;;;;;;;;5087860;28;20074;-57
2023/08/28 12:19:26;;;;;;;3.83;0.90;;;;;;;;;;5089983;28;20135;-57
2023/08/28 12:21:52;;;;;;;1.10;0.40;;;;;;;;;;5088984;28;20062;-57
2023/08/28 12:24:18;;;;;;;2.80;0.68;;;;;;;;;;5090033;28;20052;-57
2023/08/28 12:26:44;;;;;;;3.97;0.70;;;;;;;;;;5085840;28;20055;-58
2023/08/28 12:29:11;;;;;;;2.85;0.98;;;;;;;;;;5091226;28;20134;-57
2023/08/28 12:31:37;;;;;;;1.63;0.50;;;;;;;;;;5086432;28;20039;-58
2023/08/28 12:34:07;;;;;;;2.35;0.40;;;;;;;;;;5089759;28;20111;-57
2023/08/28 12:36:37;;;;;;;3.17;0.55;;;;;;;;;;5090752;28;20059;-57
2023/08/28 12:39:03;;;;;;;2.90;0.80;;;;;;;;;;5088259;28;20109;-58
2023/08/28 12:41:34;;;;;;;2.38;0.52;;;;;;;;;;5087267;28;20032;-58
2023/08/28 12:44:01;;;;;;;2.15;0.43;;;;;;;;;;5091947;28;20428;-57
2023/08/28 12:46:27;;;;;;;3.38;0.50;;;;;;;;;;5088961;28;20463;-58
2023/08/28 12:48:54;;;;;;;2.53;0.50;;;;;;;;;;5089691;28;20131;-58
2023/08/28 12:51:21;;;;;;;1.73;0.50;;;;;;;;;;5096812;28;20122;-58
2023/08/28 12:53:48;;;;;;;2.42;0.50;;;;;;;;;;5106361;28;20043;-58
2023/08/28 12:56:16;;;;;;;3.13;0.60;;;;;;;;;;5092045;28;20090;-58
2023/08/28 12:58:43;;;;;;;1.35;0.50;;;;;;;;;;5093732;28;20512;-59
2023/08/28 13:01:09;;;;;;;1.95;0.68;;;;;;;;;;5090826;28;20059;-58
2023/08/28 13:03:36;;;;;;;2.25;0.60;;;;;;;;;;5093768;28;20040;-58
2023/08/28 13:06:02;;;;;;;2.42;0.50;;;;;;;;;;5092689;28;20036;-58
2023/08/28 13:08:28;;;;;;;1.95;0.60;;;;;;;;;;5092863;28;20047;-59
2023/08/28 13:10:55;;;;;;;2.35;0.52;;;;;;;;;;5093389;28;20412;-58
2023/08/28 13:13:24;;;;;;;4.20;0.50;;;;;;;;;;5093505;28;20040;-58
2023/08/28 13:15:55;;;;;;;1.50;0.45;;;;;;;;;;5092313;28;20166;-59
2023/08/28 13:18:21;;;;;;;4.00;0.60;;;;;;;;;;5093341;28;20109;-58
2023/08/28 13:20:47;;;;;;;2.38;0.73;;;;;;;;;;5092496;28;20052;-59
2023/08/28 13:23:14;;;;;;;2.97;1.00;;;;;;;;;;5092331;28;20129;-59
2023/08/28 13:25:40;;;;;;;4.28;1.05;;;;;;;;;;5093385;28;20098;-59
2023/08/28 13:28:06;;;;;;;2.22;0.65;;;;;;;;;;5091970;28;20047;-59
2023/08/28 13:30:33;;;;;;;1.65;0.50;;;;;;;;;;5092404;28;20040;-59
2023/08/28 13:33:01;;;;;;;1.25;0.60;;;;;;;;;;5093157;28;20048;-59
2023/08/28 13:35:28;;;;;;;1.10;0.50;;;;;;;;;;5092703;28;20044;-59
2023/08/28 13:37:54;;;;;;;3.47;1.00;;;;;;;;;;5093038;28;20044;-59
2023/08/28 13:40:20;;;;;;;3.22;1.05;;;;;;;;;;5092975;28;20372;-59
2023/08/28 13:42:47;;;;;;;2.53;0.70;;;;;;;;;;5091171;28;20040;-59
2023/08/28 13:45:13;;;;;;;1.77;0.55;;;;;;;;;;5092834;28;20052;-58
2023/08/28 13:47:40;;;;;;;1.25;0.50;;;;;;;;;;5092844;28;20072;-59
2023/08/28 13:50:07;;;;;;;2.65;0.60;;;;;;;;;;5091873;28;20130;-58
2023/08/28 13:52:33;;;;;;;3.15;0.70;;;;;;;;;;5092299;28;20074;-58
2023/08/28 13:55:04;;;;;;;1.38;0.50;;;;;;;;;;5092696;28;20051;-58
2023/08/28 13:57:31;;;;;;;1.98;0.60;;;;;;;;;;5090150;28;20063;-58
2023/08/28 13:59:59;;;;;;;2.28;0.82;;;;;;;;;;5092293;28;20040;-58
2023/08/28 14:02:26;;;;;;;2.40;0.77;;;;;;;;;;5092336;28;20071;-58
2023/08/28 14:04:53;;;;;;;1.77;0.50;;;;;;;;;;5091883;28;20073;-58
2023/08/28 14:07:19;;;;;;;1.75;0.57;;;;;;;;;;5092328;28;20464;-57
2023/08/28 14:09:45;;;;;;;1.20;0.57;;;;;;;;;;5092129;28;20529;-58
2023/08/28 14:12:11;;;;;;;1.67;0.68;;;;;;;;;;5090710;28;20038;-59
2023/08/28 14:14:38;;;;;;;2.00;0.90;;;;;;;;;;5091411;28;20115;-58
2023/08/28 14:17:04;;;;;;;2.13;0.70;;;;;;;;;;5091286;28;20042;-58
2023/08/28 14:19:30;;;;;;;3.33;0.90;;;;;;;;;;5091297;28;20040;-58
2023/08/28 14:21:57;;;;;;;2.28;0.70;;;;;;;;;;5089142;28;20115;-58
2023/08/28 14:24:23;;;;;;;4.07;0.70;;;;;;;;;;5093075;28;20548;-59
2023/08/28 14:26:49;;;;;;;2.97;0.80;;;;;;;;;;5092117;28;20093;-58
2023/08/28 14:29:16;;;;;;;2.53;0.70;;;;;;;;;;5090079;28;20135;-58
2023/08/28 14:31:42;;;;;;;3.17;1.02;;;;;;;;;;5089074;28;20136;-58
2023/08/28 14:34:08;;;;;;;1.95;0.77;;;;;;;;;;5094029;28;20063;-58
2023/08/28 14:36:34;;;;;;;2.03;0.70;;;;;;;;;;5089734;28;20393;-59
2023/08/28 14:39:00;;;;;;;2.70;1.00;;;;;;;;;;5090915;28;20040;-58
2023/08/28 14:41:27;;;;;;;2.85;0.65;;;;;;;;;;5089681;28;20499;-58
2023/08/28 14:43:55;;;;;;;2.58;0.80;;;;;;;;;;5091453;28;20071;-58